Time;durP1;ratioP1;P1;durP2;ratioP2;P2;SDS_P1;SDS_P2;PMS_P1;PMS_P2;Temp;Humidity;BMP_temperature;BMP_pressure;BME280_temperature;BME280_humidity;BME280_pressure;Samples;Min_cycle;Max_cycle;Signal;HPM_P1;HPM_P2
2023/03/13 00:01:46;;;;;;;18.45;3.90;;;9.20;99.90;;;;;;5126045;27;20475;-70
2023/03/13 00:04:11;;;;;;;30.45;7.18;;;9.30;99.90;;;;;;5078234;28;20123;-70
2023/03/13 00:06:38;;;;;;;21.27;5.50;;;9.30;99.90;;;;;;5112136;28;20110;-70
2023/03/13 00:09:06;;;;;;;21.80;3.70;;;9.20;99.90;;;;;;5126527;27;20054;-70
2023/03/13 00:11:32;;;;;;;17.75;4.00;;;9.20;99.90;;;;;;5106866;28;20055;-70
2023/03/13 00:14:00;;;;;;;20.25;3.90;;;9.20;99.90;;;;;;5095618;28;20083;-70
2023/03/13 00:16:27;;;;;;;24.00;4.53;;;9.20;99.90;;;;;;5108669;28;20063;-70
2023/03/13 00:18:55;;;;;;;19.50;3.53;;;9.10;99.90;;;;;;5107206;28;20032;-70
2023/03/13 00:21:23;;;;;;;19.33;5.07;;;9.10;99.90;;;;;;5098323;28;20532;-70
2023/03/13 00:23:49;;;;;;;25.00;4.47;;;9.10;99.90;;;;;;5110542;28;20153;-70
2023/03/13 00:26:20;;;;;;;20.27;5.03;;;9.10;99.90;;;;;;5112533;28;20484;-70
2023/03/13 00:28:46;;;;;;;21.35;4.53;;;9.10;99.90;;;;;;5078425;28;20048;-70
2023/03/13 00:31:17;;;;;;;20.90;4.15;;;9.10;99.90;;;;;;5095070;28;20036;-70
2023/03/13 00:33:45;;;;;;;17.70;3.33;;;9.10;99.90;;;;;;5109454;28;20392;-71
2023/03/13 00:36:16;;;;;;;23.08;4.35;;;9.10;99.90;;;;;;5129242;27;20047;-70
2023/03/13 00:38:42;;;;;;;20.65;3.80;;;9.10;99.90;;;;;;5113373;28;20518;-71
2023/03/13 00:41:13;;;;;;;20.02;4.60;;;9.10;99.90;;;;;;5115557;28;20122;-70
2023/03/13 00:43:40;;;;;;;20.15;3.67;;;9.10;99.90;;;;;;5113157;28;20046;-70
2023/03/13 00:46:06;;;;;;;21.75;4.68;;;9.10;99.90;;;;;;5095477;28;20043;-71
2023/03/13 00:48:32;;;;;;;19.00;4.20;;;9.10;99.90;;;;;;5094551;28;20032;-70
2023/03/13 00:50:58;;;;;;;17.38;4.45;;;9.10;99.90;;;;;;5094572;28;20500;-70
2023/03/13 00:53:23;;;;;;;21.50;4.75;;;9.10;99.90;;;;;;5077673;28;20097;-71
2023/03/13 00:56:08;;;;;;;16.45;4.40;;;9.00;99.90;;;;;;5145148;27;20381;-70
2023/03/13 00:58:35;;;;;;;22.27;4.53;;;9.00;99.90;;;;;;5096453;28;20123;-70
2023/03/13 01:01:07;;;;;;;20.92;4.70;;;9.00;99.90;;;;;;5093340;27;20395;-70
2023/03/13 01:03:34;;;;;;;22.77;3.90;;;9.00;99.90;;;;;;5102195;28;20040;-70
2023/03/13 01:06:02;;;;;;;17.25;4.00;;;9.00;99.90;;;;;;5093523;28;20074;-70
2023/03/13 01:08:29;;;;;;;17.38;3.92;;;9.00;99.90;;;;;;5155387;27;20047;-70
2023/03/13 01:11:16;;;;;;;22.55;4.40;;;9.00;99.90;;;;;;5096484;28;20492;-70
2023/03/13 01:13:42;;;;;;;20.60;4.95;;;9.00;99.90;;;;;;5080456;28;20040;-70
2023/03/13 01:16:11;;;;;;;19.55;3.80;;;9.00;99.90;;;;;;5146561;27;20080;-70
2023/03/13 01:18:39;;;;;;;19.98;4.10;;;9.00;99.90;;;;;;5097603;28;20451;-70
2023/03/13 01:21:05;;;;;;;20.85;4.20;;;9.00;99.90;;;;;;5114632;28;20102;-70
2023/03/13 01:23:31;;;;;;;18.70;4.63;;;9.10;99.90;;;;;;5132959;27;20127;-70
2023/03/13 01:25:57;;;;;;;20.85;3.83;;;9.10;99.90;;;;;;5110948;27;20131;-70
2023/03/13 01:28:23;;;;;;;14.50;3.47;;;9.00;99.90;;;;;;5094296;28;20075;-70
2023/03/13 01:30:49;;;;;;;17.50;3.83;;;9.00;99.90;;;;;;5095117;28;20164;-70
2023/03/13 01:33:15;;;;;;;24.10;4.68;;;9.00;99.90;;;;;;5114184;28;20072;-70
2023/03/13 01:35:41;;;;;;;16.88;4.45;;;9.00;99.90;;;;;;5147695;27;20089;-70
2023/03/13 01:38:06;;;;;;;15.52;3.47;;;9.00;99.90;;;;;;5125646;27;20068;-70
2023/03/13 01:40:41;;;;;;;24.15;4.63;;;9.00;99.90;;;;;;5076895;28;20032;-70
2023/03/13 01:43:21;;;;;;;24.98;4.25;;;9.00;99.90;;;;;;5093615;28;20089;-70
2023/03/13 01:45:56;;;;;;;21.60;4.00;;;9.00;99.90;;;;;;5108379;28;20036;-70
2023/03/13 01:48:35;;;;;;;19.73;4.20;;;9.00;99.90;;;;;;5114126;28;20078;-70
2023/03/13 01:51:03;;;;;;;22.17;4.55;;;9.00;99.90;;;;;;5130973;27;20055;-70
2023/03/13 01:53:31;;;;;;;13.48;3.33;;;9.00;99.90;;;;;;5098371;28;20456;-70
2023/03/13 01:55:58;;;;;;;15.00;3.78;;;9.00;99.90;;;;;;5109320;28;20483;-70
2023/03/13 01:58:26;;;;;;;15.80;3.75;;;9.00;99.90;;;;;;5082255;28;20067;-70
2023/03/13 02:00:52;;;;;;;18.98;3.70;;;9.00;99.90;;;;;;5098402;27;20039;-70
2023/03/13 02:03:19;;;;;;;20.98;4.00;;;9.00;99.90;;;;;;5118184;27;20040;-70
2023/03/13 02:05:47;;;;;;;23.83;4.82;;;9.10;99.90;;;;;;5076096;28;20044;-70
2023/03/13 02:08:17;;;;;;;19.75;3.90;;;9.00;99.90;;;;;;5076488;28;20043;-70
2023/03/13 02:10:50;;;;;;;19.95;3.97;;;9.00;99.90;;;;;;5076337;28;20492;-70
2023/03/13 02:13:17;;;;;;;18.88;4.22;;;9.10;99.90;;;;;;5105074;28;20106;-70
2023/03/13 02:15:44;;;;;;;17.40;3.88;;;9.00;99.90;;;;;;5096435;28;20050;-71
2023/03/13 02:18:10;;;;;;;21.23;5.07;;;9.00;99.90;;;;;;5096711;28;20401;-71
2023/03/13 02:20:37;;;;;;;18.40;4.63;;;9.00;99.90;;;;;;5130267;27;20036;-70
2023/03/13 02:23:09;;;;;;;16.27;3.75;;;9.10;99.90;;;;;;5112042;28;20085;-71
2023/03/13 02:25:50;;;;;;;20.60;4.47;;;9.10;99.90;;;;;;5130718;27;20039;-70
2023/03/13 02:28:26;;;;;;;16.60;4.47;;;9.10;99.90;;;;;;5079249;28;20068;-70
2023/03/13 02:30:55;;;;;;;18.45;4.07;;;9.10;99.90;;;;;;5081071;28;20043;-70
2023/03/13 02:33:24;;;;;;;13.73;4.03;;;9.10;99.90;;;;;;5093501;28;20049;-69
2023/03/13 02:35:50;;;;;;;16.88;3.75;;;9.10;99.90;;;;;;5113374;28;20380;-70
2023/03/13 02:38:22;;;;;;;15.93;3.67;;;9.10;99.90;;;;;;5096048;28;20044;-70
2023/03/13 02:40:49;;;;;;;15.55;3.15;;;9.20;99.90;;;;;;5094398;28;20391;-70
2023/03/13 02:43:22;;;;;;;13.55;3.03;;;9.20;99.90;;;;;;5095139;28;20442;-70
2023/03/13 02:46:08;;;;;;;10.00;2.83;;;9.20;99.90;;;;;;5130243;27;20082;-70
2023/03/13 02:48:38;;;;;;;11.70;3.20;;;9.20;99.90;;;;;;5080186;28;20395;-70
2023/03/13 02:51:08;;;;;;;10.88;2.90;;;9.20;99.90;;;;;;5084924;28;20052;-70
2023/03/13 02:53:34;;;;;;;12.95;2.85;;;9.20;99.90;;;;;;5126597;27;20040;-70
2023/03/13 02:56:00;;;;;;;10.80;3.65;;;9.20;99.90;;;;;;5107344;28;20092;-70
2023/03/13 02:58:25;;;;;;;5.00;1.70;;;9.30;99.90;;;;;;5095748;28;20035;-70
2023/03/13 03:00:52;;;;;;;5.05;1.50;;;9.30;99.90;;;;;;5094795;28;20097;-70
2023/03/13 03:03:18;;;;;;;13.07;2.70;;;9.30;99.90;;;;;;5097919;28;20105;-70
2023/03/13 03:05:43;;;;;;;9.52;2.38;;;9.30;99.90;;;;;;5096685;27;20039;-70
2023/03/13 03:08:09;;;;;;;9.38;2.75;;;9.30;99.90;;;;;;5128757;27;20035;-70
2023/03/13 03:10:36;;;;;;;7.43;2.20;;;9.30;99.90;;;;;;5081498;28;20035;-70
2023/03/13 03:13:02;;;;;;;6.20;2.10;;;9.30;99.90;;;;;;5119917;27;20096;-70
2023/03/13 03:15:27;;;;;;;6.22;1.73;;;9.30;99.90;;;;;;5145417;27;20449;-70
2023/03/13 03:17:53;;;;;;;7.85;1.70;;;9.40;99.90;;;;;;5112314;28;20039;-70
2023/03/13 03:20:18;;;;;;;5.18;1.80;;;9.50;99.90;;;;;;5111142;28;20036;-70
2023/03/13 03:22:44;;;;;;;7.72;2.08;;;9.50;99.90;;;;;;5109994;28;20031;-70
2023/03/13 03:25:10;;;;;;;6.93;2.20;;;9.50;99.90;;;;;;5112594;28;20121;-70
2023/03/13 03:27:35;;;;;;;4.75;1.58;;;9.50;99.90;;;;;;5131696;27;20484;-70
2023/03/13 03:30:03;;;;;;;5.40;1.80;;;9.50;99.90;;;;;;5095590;28;20031;-70
2023/03/13 03:32:28;;;;;;;5.97;1.77;;;9.50;99.90;;;;;;5110263;28;20075;-70
2023/03/13 03:34:54;;;;;;;3.17;1.50;;;9.60;99.90;;;;;;5133614;27;20100;-70
2023/03/13 03:37:19;;;;;;;8.27;2.00;;;9.60;99.90;;;;;;5114391;28;20463;-70
2023/03/13 03:39:45;;;;;;;5.95;2.17;;;9.60;99.90;;;;;;5114185;27;20036;-70
2023/03/13 03:42:10;;;;;;;4.60;1.77;;;9.60;99.90;;;;;;5110014;27;20127;-70
2023/03/13 03:44:36;;;;;;;4.38;1.90;;;9.70;99.90;;;;;;5102576;27;20491;-70
2023/03/13 03:47:01;;;;;;;3.95;1.77;;;9.70;99.90;;;;;;5100885;28;20032;-70
2023/03/13 03:49:27;;;;;;;3.72;1.08;;;9.70;99.90;;;;;;5112963;28;20035;-70
2023/03/13 03:51:53;;;;;;;5.45;1.83;;;9.80;99.90;;;;;;5088171;28;20139;-70
2023/03/13 03:54:18;;;;;;;2.75;1.50;;;9.80;99.90;;;;;;5143366;27;20044;-70
2023/03/13 03:56:44;;;;;;;5.28;1.85;;;9.80;99.90;;;;;;5105898;27;20036;-70
2023/03/13 03:59:09;;;;;;;4.93;1.85;;;9.80;99.90;;;;;;5098314;28;20046;-70
2023/03/13 04:01:35;;;;;;;3.58;1.50;;;9.80;99.90;;;;;;5090686;28;20036;-70
2023/03/13 04:04:00;;;;;;;3.13;1.33;;;9.80;99.90;;;;;;5112994;27;20044;-70
2023/03/13 04:06:26;;;;;;;4.47;1.77;;;9.90;99.90;;;;;;5116697;27;20063;-70
2023/03/13 04:08:51;;;;;;;7.75;1.80;;;9.90;99.90;;;;;;5113325;28;20097;-70
2023/03/13 04:11:17;;;;;;;5.30;1.95;;;9.90;99.90;;;;;;5113989;28;20122;-70
2023/03/13 04:13:42;;;;;;;4.82;1.92;;;9.90;99.90;;;;;;5110440;28;20043;-70
2023/03/13 04:16:09;;;;;;;3.90;1.42;;;10.00;99.90;;;;;;5096868;28;20039;-70
2023/03/13 04:18:34;;;;;;;2.50;1.42;;;10.00;99.90;;;;;;5115750;28;20491;-71
2023/03/13 04:21:01;;;;;;;3.80;1.60;;;10.10;99.90;;;;;;5096366;28;20066;-71
2023/03/13 04:23:27;;;;;;;2.33;1.35;;;10.10;99.90;;;;;;5124843;27;20071;-70
2023/03/13 04:25:52;;;;;;;3.95;1.73;;;10.10;99.90;;;;;;5131249;27;20071;-70
2023/03/13 04:28:18;;;;;;;4.82;1.80;;;10.20;99.90;;;;;;5111784;28;20506;-70
2023/03/13 04:30:43;;;;;;;2.80;1.48;;;10.30;99.90;;;;;;5123817;27;20043;-70
2023/03/13 04:33:09;;;;;;;4.68;1.60;;;10.30;99.90;;;;;;5137048;27;20042;-70
2023/03/13 04:35:34;;;;;;;2.58;1.33;;;10.40;99.90;;;;;;5097199;28;20040;-71
2023/03/13 04:38:01;;;;;;;3.83;1.85;;;10.50;99.90;;;;;;5125110;27;20108;-70
2023/03/13 04:40:27;;;;;;;3.17;1.60;;;10.50;99.90;;;;;;5080365;28;20501;-71
2023/03/13 04:42:52;;;;;;;3.17;1.60;;;10.50;99.90;;;;;;5080594;28;20032;-71
2023/03/13 04:45:18;;;;;;;5.10;2.65;;;10.60;99.90;;;;;;5088172;28;20491;-70
2023/03/13 04:47:45;;;;;;;3.92;2.00;;;10.60;99.90;;;;;;5112031;28;20043;-70
2023/03/13 04:50:11;;;;;;;4.57;2.10;;;10.70;99.90;;;;;;5088273;28;20036;-70
2023/03/13 04:52:37;;;;;;;8.45;2.92;;;10.70;99.90;;;;;;5111438;28;20050;-70
2023/03/13 04:55:03;;;;;;;6.53;2.80;;;10.80;99.90;;;;;;5077605;28;20036;-70
2023/03/13 04:57:29;;;;;;;4.50;2.17;;;10.80;99.90;;;;;;5134246;27;20445;-70
2023/03/13 04:59:55;;;;;;;5.15;2.10;;;10.90;99.90;;;;;;5103518;28;20072;-70
2023/03/13 05:02:20;;;;;;;5.25;2.40;;;10.90;99.90;;;;;;5111981;28;20372;-70
2023/03/13 05:04:46;;;;;;;5.25;2.80;;;11.00;99.90;;;;;;5096771;28;20036;-70
2023/03/13 05:07:11;;;;;;;3.80;2.30;;;11.00;99.90;;;;;;5102054;27;20117;-70
2023/03/13 05:09:37;;;;;;;2.90;1.85;;;11.10;99.90;;;;;;5107402;28;20040;-71
2023/03/13 05:12:03;;;;;;;5.75;2.85;;;11.10;99.90;;;;;;5111862;28;20067;-70
2023/03/13 05:14:28;;;;;;;6.10;2.92;;;11.10;99.90;;;;;;5115974;27;20094;-70
2023/03/13 05:16:54;;;;;;;5.18;2.45;;;11.10;99.90;;;;;;5083447;28;20459;-70
2023/03/13 05:19:19;;;;;;;5.85;3.00;;;11.10;99.90;;;;;;5110568;28;20062;-70
2023/03/13 05:21:45;;;;;;;8.48;4.50;;;11.10;99.90;;;;;;5130060;27;20039;-70
2023/03/13 05:24:10;;;;;;;7.05;2.40;;;11.10;99.90;;;;;;5111994;28;20505;-70
2023/03/13 05:26:36;;;;;;;9.18;4.55;;;11.20;99.90;;;;;;5111413;28;20067;-70
2023/03/13 05:29:01;;;;;;;6.70;3.33;;;11.20;99.90;;;;;;5094076;28;20050;-70
2023/03/13 05:31:27;;;;;;;6.90;3.20;;;11.30;99.90;;;;;;5085633;28;20032;-70
2023/03/13 05:33:53;;;;;;;6.35;3.13;;;11.30;99.90;;;;;;5110252;28;20097;-70
2023/03/13 05:36:18;;;;;;;6.38;2.95;;;11.40;99.90;;;;;;5122385;27;20498;-70
2023/03/13 05:38:44;;;;;;;7.38;3.67;;;11.50;99.90;;;;;;5122637;27;20047;-70
2023/03/13 05:41:10;;;;;;;8.73;4.07;;;11.40;99.90;;;;;;5129955;27;20031;-70
2023/03/13 05:43:35;;;;;;;5.38;3.20;;;11.50;99.90;;;;;;5099221;27;20044;-70
2023/03/13 05:46:01;;;;;;;8.68;4.63;;;11.50;99.90;;;;;;5108638;28;20046;-70
2023/03/13 05:48:26;;;;;;;6.00;3.70;;;11.50;99.90;;;;;;5116345;27;20127;-70
2023/03/13 05:50:52;;;;;;;5.88;3.13;;;11.50;99.90;;;;;;5107379;28;20054;-70
2023/03/13 05:53:17;;;;;;;7.75;4.28;;;11.60;99.90;;;;;;5111315;28;20044;-70
2023/03/13 05:55:43;;;;;;;4.90;2.85;;;11.60;99.90;;;;;;5094496;28;20471;-70
2023/03/13 05:58:08;;;;;;;4.63;2.10;;;11.70;99.90;;;;;;5128480;27;20043;-71
2023/03/13 06:00:34;;;;;;;10.85;3.15;;;11.60;99.90;;;;;;5090496;28;20075;-70
2023/03/13 06:03:00;;;;;;;4.47;1.80;;;11.80;99.90;;;;;;5111453;27;20031;-71
2023/03/13 06:05:25;;;;;;;5.35;2.83;;;11.80;99.90;;;;;;5075945;28;20032;-71
2023/03/13 06:07:51;;;;;;;7.68;3.88;;;11.80;99.90;;;;;;5111870;27;20031;-71
2023/03/13 06:10:16;;;;;;;6.53;3.63;;;11.70;99.90;;;;;;5097272;28;20032;-71
2023/03/13 06:12:42;;;;;;;8.15;3.65;;;11.70;99.90;;;;;;5124751;27;20035;-71
2023/03/13 06:15:08;;;;;;;4.90;2.70;;;11.70;99.90;;;;;;5106707;28;20040;-71
2023/03/13 06:17:35;;;;;;;4.95;2.38;;;11.90;99.90;;;;;;5110736;28;20141;-71
2023/03/13 06:20:02;;;;;;;6.93;3.45;;;11.90;99.90;;;;;;5108231;28;20074;-71
2023/03/13 06:22:29;;;;;;;4.18;2.33;;;11.80;99.90;;;;;;5110915;28;20046;-71
2023/03/13 06:24:55;;;;;;;7.38;3.05;;;11.80;99.90;;;;;;5077713;28;20046;-69
2023/03/13 06:27:21;;;;;;;5.80;2.70;;;11.90;99.90;;;;;;5092814;28;20036;-70
2023/03/13 06:29:47;;;;;;;4.90;2.38;;;11.90;99.90;;;;;;5115653;27;20047;-69
2023/03/13 06:32:12;;;;;;;7.30;3.17;;;11.90;99.90;;;;;;5127331;27;20036;-70
2023/03/13 06:34:38;;;;;;;7.00;2.75;;;11.90;99.90;;;;;;5094171;28;20063;-69
2023/03/13 06:37:04;;;;;;;6.22;3.08;;;11.90;99.90;;;;;;5109056;28;20039;-69
2023/03/13 06:39:29;;;;;;;9.63;3.15;;;11.90;99.90;;;;;;5104838;28;20035;-69
2023/03/13 06:41:55;;;;;;;9.65;3.22;;;11.90;99.90;;;;;;5126525;27;20038;-69
2023/03/13 06:44:20;;;;;;;7.88;3.22;;;11.90;99.90;;;;;;5093696;28;20040;-69
2023/03/13 06:46:46;;;;;;;4.97;2.47;;;12.00;99.90;;;;;;5109979;28;20036;-70
2023/03/13 06:49:12;;;;;;;6.05;2.05;;;12.00;99.90;;;;;;5108356;27;20039;-69
2023/03/13 06:51:37;;;;;;;10.05;3.58;;;12.10;99.90;;;;;;5093751;28;20063;-69
2023/03/13 06:54:03;;;;;;;6.65;2.72;;;12.00;99.90;;;;;;5135648;27;20032;-69
2023/03/13 06:56:28;;;;;;;12.55;3.72;;;12.10;99.90;;;;;;5092366;28;20040;-69
2023/03/13 06:58:54;;;;;;;11.48;3.58;;;12.10;99.90;;;;;;5144380;27;20039;-69
2023/03/13 07:01:19;;;;;;;11.90;4.10;;;12.10;99.90;;;;;;5110544;28;20046;-69
2023/03/13 07:03:47;;;;;;;11.88;4.38;;;12.10;99.90;;;;;;5128866;27;20527;-69
2023/03/13 07:06:12;;;;;;;8.30;3.38;;;12.10;99.90;;;;;;5106332;28;20038;-69
2023/03/13 07:08:38;;;;;;;6.97;2.72;;;12.10;99.90;;;;;;5087854;28;20115;-69
2023/03/13 07:11:08;;;;;;;8.27;3.33;;;12.10;99.90;;;;;;5106576;28;20043;-69
2023/03/13 07:13:34;;;;;;;7.10;3.03;;;12.10;99.90;;;;;;5111305;28;20046;-69
2023/03/13 07:16:11;;;;;;;8.13;3.50;;;12.20;99.90;;;;;;5090429;28;20045;-69
2023/03/13 07:18:38;;;;;;;14.65;3.60;;;12.20;99.90;;;;;;5091789;28;20101;-69
2023/03/13 07:21:04;;;;;;;10.40;3.55;;;12.10;99.90;;;;;;5096042;28;20047;-69
2023/03/13 07:23:31;;;;;;;5.90;2.08;;;12.10;99.90;;;;;;5119590;27;20399;-70
2023/03/13 07:25:59;;;;;;;10.13;3.08;;;12.10;99.90;;;;;;5109806;28;20078;-70
2023/03/13 07:28:26;;;;;;;7.97;2.83;;;12.10;99.90;;;;;;5083727;28;20115;-70
2023/03/13 07:30:52;;;;;;;7.28;2.80;;;12.10;99.90;;;;;;5127949;27;20059;-70
2023/03/13 07:33:18;;;;;;;10.20;2.92;;;12.10;99.90;;;;;;5091469;28;20540;-70
2023/03/13 07:35:53;;;;;;;8.05;2.97;;;12.10;99.90;;;;;;5087411;28;20858;-70
2023/03/13 07:38:19;;;;;;;9.45;3.35;;;12.20;99.90;;;;;;5110485;28;20043;-70
2023/03/13 07:40:53;;;;;;;13.85;3.92;;;12.20;99.90;;;;;;5110140;28;20062;-71
2023/03/13 07:43:19;;;;;;;8.98;2.67;;;12.10;99.90;;;;;;5093085;28;20479;-71
2023/03/13 07:45:55;;;;;;;7.65;2.97;;;12.10;99.90;;;;;;5108402;28;20044;-71
2023/03/13 07:48:22;;;;;;;9.38;3.00;;;12.10;99.90;;;;;;5074637;28;20074;-71
2023/03/13 07:50:47;;;;;;;7.40;3.53;;;12.10;99.90;;;;;;5092484;28;20063;-70
2023/03/13 07:53:19;;;;;;;8.63;2.83;;;12.10;99.90;;;;;;5106771;28;20044;-71
2023/03/13 07:55:51;;;;;;;10.75;3.83;;;12.20;99.90;;;;;;5093031;28;20066;-70
2023/03/13 07:58:16;;;;;;;7.78;2.50;;;12.20;99.90;;;;;;5111508;28;20118;-70
2023/03/13 08:00:42;;;;;;;8.00;2.75;;;12.10;99.90;;;;;;5108549;28;20123;-70
2023/03/13 08:03:09;;;;;;;7.38;2.42;;;12.10;99.90;;;;;;5110539;28;20039;-71
2023/03/13 08:05:34;;;;;;;7.50;2.33;;;12.10;99.90;;;;;;5106897;28;20043;-71
2023/03/13 08:08:00;;;;;;;6.57;2.28;;;12.10;99.90;;;;;;5109488;28;20039;-70
2023/03/13 08:10:25;;;;;;;5.68;1.55;;;12.10;99.90;;;;;;5107184;28;20096;-70
2023/03/13 08:12:51;;;;;;;7.55;2.75;;;12.10;99.90;;;;;;5099192;28;20148;-70
2023/03/13 08:15:20;;;;;;;5.63;2.03;;;12.10;99.90;;;;;;5117638;28;20036;-70
2023/03/13 08:17:46;;;;;;;7.78;2.80;;;12.10;99.90;;;;;;5126912;28;20514;-70
2023/03/13 08:20:11;;;;;;;3.55;1.50;;;12.10;99.90;;;;;;5110727;28;20119;-71
2023/03/13 08:22:37;;;;;;;4.25;2.22;;;12.10;99.90;;;;;;5104500;28;20023;-70
2023/03/13 08:25:03;;;;;;;5.90;1.50;;;12.10;99.90;;;;;;5104954;28;20064;-71
2023/03/13 08:27:29;;;;;;;6.18;1.65;;;12.10;99.90;;;;;;5127256;27;20039;-71
2023/03/13 08:29:55;;;;;;;3.97;1.45;;;12.20;99.90;;;;;;5094535;27;20031;-70
2023/03/13 08:32:20;;;;;;;3.95;1.80;;;12.10;99.90;;;;;;5109280;28;20093;-70
2023/03/13 08:34:46;;;;;;;2.85;1.17;;;12.00;99.90;;;;;;5102869;28;20124;-70
2023/03/13 08:37:14;;;;;;;4.45;1.67;;;12.10;99.90;;;;;;5110802;28;20489;-70
2023/03/13 08:39:40;;;;;;;3.53;1.13;;;12.30;99.90;;;;;;5109328;27;20484;-70
2023/03/13 08:42:10;;;;;;;4.30;1.30;;;12.30;99.90;;;;;;5111781;28;20080;-79
2023/03/13 08:44:35;;;;;;;5.25;1.67;;;12.30;99.90;;;;;;5114852;28;20036;-78
2023/03/13 08:47:04;;;;;;;4.40;1.60;;;12.30;99.90;;;;;;5123876;27;20108;-75
2023/03/13 08:49:29;;;;;;;6.00;1.58;;;12.30;99.90;;;;;;5095558;28;20035;-75
2023/03/13 08:51:55;;;;;;;6.50;1.50;;;12.40;99.90;;;;;;5117468;27;20142;-74
2023/03/13 08:54:21;;;;;;;4.20;1.20;;;12.40;99.90;;;;;;5124581;27;20042;-74
2023/03/13 08:56:46;;;;;;;8.02;1.52;;;12.40;99.90;;;;;;5110724;28;20471;-83
2023/03/13 08:59:14;;;;;;;5.28;1.50;;;12.50;99.90;;;;;;5105537;28;20404;-73
2023/03/13 09:01:40;;;;;;;2.55;1.35;;;12.50;99.90;;;;;;5104007;28;20096;-75
2023/03/13 09:04:07;;;;;;;3.75;1.52;;;12.50;99.90;;;;;;5126902;27;20505;-74
2023/03/13 09:06:34;;;;;;;2.75;0.93;;;12.60;99.90;;;;;;5103500;28;20035;-71
2023/03/13 09:09:00;;;;;;;5.22;1.70;;;12.70;99.90;;;;;;5094418;28;20100;-70
2023/03/13 09:11:26;;;;;;;3.30;1.40;;;12.70;99.90;;;;;;5107539;27;20039;-70
2023/03/13 09:13:57;;;;;;;4.25;1.50;;;12.80;99.90;;;;;;5099174;28;20055;-70
2023/03/13 09:16:25;;;;;;;6.63;1.88;;;12.70;99.90;;;;;;5096553;28;20110;-70
2023/03/13 09:18:51;;;;;;;7.38;1.70;;;12.80;99.90;;;;;;5076253;28;20040;-70
2023/03/13 09:21:22;;;;;;;5.00;1.60;;;12.80;99.90;;;;;;5103312;28;20039;-70
2023/03/13 09:23:49;;;;;;;3.90;1.52;;;12.80;99.90;;;;;;5094978;28;20060;-70
2023/03/13 09:26:16;;;;;;;8.05;2.20;;;12.80;99.90;;;;;;5111052;28;20036;-70
2023/03/13 09:28:42;;;;;;;3.88;1.60;;;12.70;99.90;;;;;;5134250;27;20058;-70
2023/03/13 09:31:13;;;;;;;7.30;2.15;;;12.70;99.90;;;;;;5095342;28;20047;-70
2023/03/13 09:33:39;;;;;;;5.10;1.98;;;12.70;99.90;;;;;;5096304;28;20031;-70
2023/03/13 09:36:05;;;;;;;9.65;2.63;;;12.70;99.90;;;;;;5094538;28;20081;-70
2023/03/13 09:38:31;;;;;;;4.82;1.50;;;12.60;99.90;;;;;;5112003;28;20038;-69
2023/03/13 09:41:17;;;;;;;6.22;2.08;;;12.50;99.90;;;;;;5129091;27;20458;-70
2023/03/13 09:43:54;;;;;;;5.82;1.92;;;12.60;99.90;;;;;;5145087;27;20507;-70
2023/03/13 09:46:43;;;;;;;7.35;2.03;;;12.50;99.90;;;;;;5076303;28;20044;-70
2023/03/13 09:49:30;;;;;;;2.70;1.08;;;12.60;99.90;;;;;;5108678;28;20097;-70
2023/03/13 09:52:45;;;;;;;5.00;1.75;;;12.70;99.90;;;;;;5092432;28;20067;-70
2023/03/13 09:55:20;;;;;;;5.72;2.20;;;12.70;99.90;;;;;;5089858;28;20488;-69
2023/03/13 09:57:48;;;;;;;8.10;2.60;;;12.70;99.90;;;;;;5091961;28;20515;-70
2023/03/13 10:00:35;;;;;;;10.60;2.60;;;12.70;99.90;;;;;;5146132;27;20035;-69
2023/03/13 10:03:12;;;;;;;7.80;2.10;;;12.90;99.90;;;;;;5112343;28;20039;-69
2023/03/13 10:05:57;;;;;;;8.35;2.25;;;13.00;99.90;;;;;;5142687;27;20039;-69
2023/03/13 10:08:30;;;;;;;5.50;1.75;;;13.20;99.90;;;;;;5085925;28;20031;-70
2023/03/13 10:11:01;;;;;;;11.57;2.45;;;13.20;99.90;;;;;;5102893;28;20032;-69
2023/03/13 10:13:43;;;;;;;9.73;1.77;;;13.30;99.90;;;;;;5113315;27;20064;-70
2023/03/13 10:16:19;;;;;;;8.18;2.20;;;13.50;99.90;;;;;;5075588;28;20044;-70
2023/03/13 10:18:51;;;;;;;8.43;2.20;;;13.50;99.90;;;;;;5106449;28;20043;-69
2023/03/13 10:21:19;;;;;;;9.43;2.03;;;13.50;99.90;;;;;;5096373;28;20035;-70
2023/03/13 10:23:59;;;;;;;9.70;3.03;;;13.50;99.90;;;;;;5095786;28;20032;-70
2023/03/13 10:26:32;;;;;;;9.25;1.73;;;13.50;99.90;;;;;;5081643;28;20078;-69
2023/03/13 10:29:16;;;;;;;9.45;1.98;;;13.60;99.90;;;;;;5096075;28;20484;-70
2023/03/13 10:31:51;;;;;;;7.35;2.25;;;13.60;99.90;;;;;;5075592;28;20047;-70
2023/03/13 10:34:17;;;;;;;10.63;2.35;;;13.70;99.90;;;;;;5092201;28;20040;-70
2023/03/13 10:36:46;;;;;;;8.48;1.30;;;13.60;99.90;;;;;;5126335;27;20089;-70
2023/03/13 10:39:17;;;;;;;10.65;2.00;;;13.70;99.90;;;;;;5092328;28;20097;-70
2023/03/13 10:41:43;;;;;;;10.17;1.87;;;13.60;99.90;;;;;;5082049;28;20399;-69
2023/03/13 10:44:21;;;;;;;7.38;1.60;;;13.60;99.90;;;;;;5098162;28;20101;-69
2023/03/13 10:46:49;;;;;;;10.30;2.58;;;13.60;99.90;;;;;;5108891;28;20123;-69
2023/03/13 10:49:18;;;;;;;8.60;2.10;;;13.60;99.90;;;;;;5092591;28;20361;-69
2023/03/13 10:51:50;;;;;;;14.85;2.03;;;13.60;99.90;;;;;;5109081;28;20052;-69
2023/03/13 10:54:22;;;;;;;10.63;2.15;;;13.60;99.90;;;;;;5082895;28;20043;-69
2023/03/13 10:56:49;;;;;;;10.75;2.20;;;13.60;99.90;;;;;;5109905;28;20484;-70
2023/03/13 10:59:23;;;;;;;8.27;2.10;;;13.60;99.90;;;;;;5129071;27;20072;-70
2023/03/13 11:01:50;;;;;;;11.38;2.55;;;13.60;99.90;;;;;;5093656;28;20441;-70
2023/03/13 11:04:32;;;;;;;6.72;1.60;;;13.60;99.90;;;;;;5100856;27;20039;-70
2023/03/13 11:07:05;;;;;;;9.15;1.88;;;13.70;99.90;;;;;;5095005;28;20079;-70
2023/03/13 11:09:31;;;;;;;7.30;1.73;;;13.80;99.90;;;;;;5113835;27;20097;-70
2023/03/13 11:12:08;;;;;;;10.75;2.80;;;13.90;99.90;;;;;;5098817;28;20036;-69
2023/03/13 11:14:34;;;;;;;8.43;1.60;;;13.90;99.90;;;;;;5092621;28;20028;-69
2023/03/13 11:17:23;;;;;;;7.90;2.08;;;13.90;99.90;;;;;;5079498;28;20040;-70
2023/03/13 11:20:05;;;;;;;9.38;1.98;;;13.90;99.90;;;;;;5108182;28;20032;-70
2023/03/13 11:23:10;;;;;;;6.95;1.90;;;13.90;99.90;;;;;;5091600;28;20063;-69
2023/03/13 11:25:48;;;;;;;9.18;2.13;;;13.80;99.90;;;;;;5073014;28;20615;-69
2023/03/13 11:28:17;;;;;;;6.53;1.65;;;13.90;99.90;;;;;;5083463;28;20097;-69
2023/03/13 11:31:04;;;;;;;5.72;1.40;;;13.90;99.90;;;;;;5100882;28;20495;-70
2023/03/13 11:33:52;;;;;;;6.85;1.98;;;14.00;99.90;;;;;;5102421;28;20105;-69
2023/03/13 11:36:41;;;;;;;9.38;2.08;;;14.00;99.90;;;;;;5108277;28;20090;-70
2023/03/13 11:39:27;;;;;;;6.65;1.45;;;14.10;99.90;;;;;;5080176;28;20039;-69
2023/03/13 11:42:10;;;;;;;4.05;1.45;;;14.20;99.90;;;;;;5115809;27;20518;-70
2023/03/13 11:44:48;;;;;;;6.80;1.80;;;14.20;99.90;;;;;;5110309;28;20039;-70
2023/03/13 11:47:36;;;;;;;10.45;2.85;;;14.30;99.90;;;;;;5143442;27;20043;-69
2023/03/13 11:50:31;;;;;;;5.90;1.77;;;14.20;99.90;;;;;;5091845;28;20092;-69
2023/03/13 11:53:17;;;;;;;5.05;1.30;;;14.40;99.90;;;;;;5078627;28;20044;-69
2023/03/13 11:55:47;;;;;;;8.65;1.40;;;14.40;99.90;;;;;;5078476;28;20039;-69
2023/03/13 11:58:51;;;;;;;7.72;1.70;;;14.30;99.90;;;;;;5119389;27;20047;-69
2023/03/13 12:01:19;;;;;;;5.32;1.50;;;14.40;99.90;;;;;;5077462;28;20036;-70
2023/03/13 12:03:50;;;;;;;8.70;1.98;;;14.50;99.90;;;;;;5077881;28;20079;-69
2023/03/13 12:06:33;;;;;;;8.17;2.00;;;14.50;99.90;;;;;;5079787;28;20132;-69
2023/03/13 12:09:30;;;;;;;5.32;1.30;;;14.50;99.90;;;;;;5098810;28;20316;-69
2023/03/13 12:12:10;;;;;;;4.60;1.30;;;14.70;99.90;;;;;;5086946;28;20128;-70
2023/03/13 12:14:47;;;;;;;3.53;1.23;;;14.60;99.90;;;;;;5096499;27;20050;-69
2023/03/13 12:17:37;;;;;;;6.95;1.85;;;14.50;99.90;;;;;;5078313;28;20422;-70
2023/03/13 12:20:06;;;;;;;5.60;1.30;;;14.40;99.90;;;;;;5089909;28;20040;-69
2023/03/13 12:22:40;;;;;;;6.15;1.25;;;14.40;99.90;;;;;;5113624;28;20031;-69
2023/03/13 12:25:15;;;;;;;7.38;1.63;;;14.60;99.90;;;;;;5093506;28;20499;-69
2023/03/13 12:27:46;;;;;;;5.93;1.73;;;14.50;99.90;;;;;;5077667;28;20040;-69
2023/03/13 12:30:38;;;;;;;5.63;1.33;;;14.50;99.90;;;;;;5129651;27;20526;-69
2023/03/13 12:33:16;;;;;;;6.25;1.55;;;14.50;99.90;;;;;;5124028;27;20088;-69
2023/03/13 12:35:46;;;;;;;6.75;1.35;;;14.60;99.90;;;;;;5105333;28;20047;-70
2023/03/13 12:38:32;;;;;;;7.97;1.70;;;14.70;99.90;;;;;;5093066;28;20027;-70
2023/03/13 12:41:00;;;;;;;9.25;2.00;;;14.70;99.90;;;;;;5089122;28;20060;-70
2023/03/13 12:43:31;;;;;;;9.50;1.90;;;14.50;99.90;;;;;;5111708;28;20480;-69
2023/03/13 12:45:57;;;;;;;7.18;1.83;;;14.40;99.90;;;;;;5105691;27;20387;-69
2023/03/13 12:48:54;;;;;;;11.10;2.33;;;14.40;99.90;;;;;;5122747;27;20043;-69
2023/03/13 12:51:23;;;;;;;10.88;2.33;;;14.50;99.90;;;;;;5043414;28;20051;-69
2023/03/13 12:54:27;;;;;;;9.68;1.98;;;14.50;99.90;;;;;;5115173;28;20059;-69
2023/03/13 12:57:33;;;;;;;10.52;2.00;;;14.70;99.90;;;;;;5105686;28;20085;-69
2023/03/13 13:00:04;;;;;;;11.27;2.25;;;14.80;99.90;;;;;;5105456;28;20123;-69
2023/03/13 13:02:31;;;;;;;12.45;2.22;;;14.90;99.90;;;;;;5110640;28;20040;-69